Time;durP1;ratioP1;P1;durP2;ratioP2;P2;SDS_P1;SDS_P2;PMS_P1;PMS_P2;Temp;Humidity;BMP_temperature;BMP_pressure;BME280_temperature;BME280_humidity;BME280_pressure;Samples;Min_cycle;Max_cycle;Signal;HPM_P1;HPM_P2
2023/12/15 00:00:45;;;;;;;36.90;23.63;;;;;;;;;;5013222;28;20528;-41
2023/12/15 00:03:12;;;;;;;34.23;25.00;;;;;;;;;;5013335;28;20468;-38
2023/12/15 00:05:41;;;;;;;34.47;24.67;;;;;;;;;;5012935;28;20994;-41
2023/12/15 00:08:09;;;;;;;33.33;26.17;;;;;;;;;;5012383;28;20886;-38
2023/12/15 00:10:36;;;;;;;32.03;26.80;;;;;;;;;;5013263;28;20433;-38
2023/12/15 00:13:04;;;;;;;31.07;25.83;;;;;;;;;;5012999;28;20952;-40
2023/12/15 00:15:31;;;;;;;38.53;26.57;;;;;;;;;;5012919;28;20465;-42
2023/12/15 00:17:59;;;;;;;33.57;22.67;;;;;;;;;;5012469;28;20489;-38
2023/12/15 00:20:27;;;;;;;35.53;25.17;;;;;;;;;;5013103;28;20540;-40
2023/12/15 00:22:56;;;;;;;27.87;23.67;;;;;;;;;;5012926;28;20873;-44
2023/12/15 00:25:23;;;;;;;29.77;22.80;;;;;;;;;;5012556;28;20441;-39
2023/12/15 00:27:51;;;;;;;38.10;26.20;;;;;;;;;;5011640;28;20549;-39
2023/12/15 00:30:18;;;;;;;39.27;26.37;;;;;;;;;;5012839;28;20925;-42
2023/12/15 00:32:46;;;;;;;31.77;24.37;;;;;;;;;;5012732;28;20539;-41
2023/12/15 00:35:14;;;;;;;32.17;24.60;;;;;;;;;;5012388;28;20990;-38
2023/12/15 00:37:41;;;;;;;34.17;24.37;;;;;;;;;;5012352;28;20512;-44
2023/12/15 00:40:12;;;;;;;33.83;24.70;;;;;;;;;;5012654;28;20529;-44
2023/12/15 00:42:39;;;;;;;30.77;24.70;;;;;;;;;;5012572;28;20456;-39
2023/12/15 00:45:08;;;;;;;32.07;24.97;;;;;;;;;;5012286;28;20516;-39
2023/12/15 00:47:35;;;;;;;34.80;24.50;;;;;;;;;;5012150;28;21005;-41
2023/12/15 00:50:05;;;;;;;35.77;26.07;;;;;;;;;;5012291;28;20433;-42
2023/12/15 00:52:32;;;;;;;37.13;26.17;;;;;;;;;;5012584;28;20437;-42
2023/12/15 00:55:02;;;;;;;38.53;27.37;;;;;;;;;;5012194;28;20539;-39
2023/12/15 00:57:31;;;;;;;40.53;26.03;;;;;;;;;;5011861;28;20519;-39
2023/12/15 00:59:58;;;;;;;32.07;26.60;;;;;;;;;;5012447;28;21146;-40
2023/12/15 01:02:26;;;;;;;41.53;26.47;;;;;;;;;;5011923;28;20440;-39
2023/12/15 01:04:53;;;;;;;36.87;26.50;;;;;;;;;;5012045;28;20440;-40
2023/12/15 01:07:21;;;;;;;34.50;26.30;;;;;;;;;;5011368;28;20988;-38
2023/12/15 01:09:49;;;;;;;40.00;27.13;;;;;;;;;;5012206;28;20433;-41
2023/12/15 01:12:16;;;;;;;38.23;26.90;;;;;;;;;;5012084;28;20880;-39
2023/12/15 01:14:45;;;;;;;41.03;28.87;;;;;;;;;;5011877;28;20439;-39
2023/12/15 01:17:12;;;;;;;35.83;27.27;;;;;;;;;;5011198;28;20544;-39
2023/12/15 01:19:40;;;;;;;41.63;28.13;;;;;;;;;;5011924;28;20438;-44
2023/12/15 01:22:08;;;;;;;39.17;28.23;;;;;;;;;;5011706;28;20528;-38
2023/12/15 01:24:35;;;;;;;43.40;28.53;;;;;;;;;;5011988;28;20533;-41
2023/12/15 01:27:03;;;;;;;36.30;29.73;;;;;;;;;;5011199;28;20457;-40
2023/12/15 01:29:31;;;;;;;41.47;28.77;;;;;;;;;;5011793;28;21035;-39
2023/12/15 01:32:00;;;;;;;43.40;30.00;;;;;;;;;;5011979;28;20453;-41
2023/12/15 01:34:27;;;;;;;42.13;30.40;;;;;;;;;;5011497;28;20429;-37
2023/12/15 01:36:55;;;;;;;41.27;29.97;;;;;;;;;;5011023;28;20488;-40
2023/12/15 01:39:22;;;;;;;41.37;29.77;;;;;;;;;;5011642;28;20710;-39
2023/12/15 01:41:50;;;;;;;37.97;29.07;;;;;;;;;;5011867;28;20458;-38
2023/12/15 01:44:17;;;;;;;44.80;28.77;;;;;;;;;;5011623;28;20821;-40
2023/12/15 01:46:45;;;;;;;38.50;26.33;;;;;;;;;;5011360;28;20461;-41
2023/12/15 01:49:14;;;;;;;41.30;28.60;;;;;;;;;;5011659;28;20511;-41
2023/12/15 01:51:42;;;;;;;42.80;28.10;;;;;;;;;;5011751;28;20441;-43
2023/12/15 01:54:10;;;;;;;43.93;29.53;;;;;;;;;;5011406;28;20437;-43
2023/12/15 01:56:38;;;;;;;42.30;28.40;;;;;;;;;;5011252;28;20531;-42
2023/12/15 01:59:05;;;;;;;45.30;28.80;;;;;;;;;;5010998;28;20501;-38
2023/12/15 02:01:33;;;;;;;46.90;31.63;;;;;;;;;;5003761;28;21097;-43
2023/12/15 02:04:01;;;;;;;39.30;30.10;;;;;;;;;;5011499;28;20821;-39
2023/12/15 02:06:30;;;;;;;39.30;26.57;;;;;;;;;;5011643;28;20468;-39
2023/12/15 02:08:58;;;;;;;45.37;28.03;;;;;;;;;;5010981;28;20464;-39
2023/12/15 02:11:25;;;;;;;44.77;30.00;;;;;;;;;;5011638;28;20880;-42
2023/12/15 02:13:53;;;;;;;43.93;28.57;;;;;;;;;;5011823;28;20855;-43
2023/12/15 02:16:20;;;;;;;44.87;30.40;;;;;;;;;;5011287;28;20821;-41
2023/12/15 02:18:48;;;;;;;48.13;30.57;;;;;;;;;;5010591;28;20888;-41
2023/12/15 02:21:16;;;;;;;37.87;29.07;;;;;;;;;;5011131;28;20952;-38
2023/12/15 02:23:45;;;;;;;51.07;30.50;;;;;;;;;;5011280;28;20442;-40
2023/12/15 02:26:12;;;;;;;39.13;30.77;;;;;;;;;;5011115;28;20535;-41
2023/12/15 02:28:40;;;;;;;45.37;31.77;;;;;;;;;;5010546;28;20526;-45
2023/12/15 02:31:07;;;;;;;44.67;30.23;;;;;;;;;;5011460;28;20980;-41
2023/12/15 02:33:35;;;;;;;47.33;32.33;;;;;;;;;;5011261;28;20491;-38
2023/12/15 02:36:03;;;;;;;46.67;30.10;;;;;;;;;;5010724;28;20536;-39
2023/12/15 02:38:31;;;;;;;47.90;29.67;;;;;;;;;;5010753;28;20492;-42
2023/12/15 02:41:00;;;;;;;46.87;30.77;;;;;;;;;;5011290;28;20464;-39
2023/12/15 02:43:27;;;;;;;48.83;31.50;;;;;;;;;;5011080;28;20464;-39
2023/12/15 02:45:55;;;;;;;43.20;30.13;;;;;;;;;;5010759;28;21012;-40
2023/12/15 02:48:23;;;;;;;42.87;30.87;;;;;;;;;;5010606;28;20825;-41
2023/12/15 02:50:50;;;;;;;50.67;33.80;;;;;;;;;;5012712;28;20492;-40
2023/12/15 02:53:18;;;;;;;47.80;30.70;;;;;;;;;;5014717;28;20791;-43
2023/12/15 02:55:46;;;;;;;61.47;32.20;;;;;;;;;;5014222;28;20555;-40
2023/12/15 02:58:14;;;;;;;59.27;34.17;;;;;;;;;;5013850;28;20495;-39
2023/12/15 03:00:42;;;;;;;51.77;33.47;;;;;;;;;;5014316;28;20437;-43
2023/12/15 03:03:10;;;;;;;52.00;33.77;;;;;;;;;;5014270;28;20525;-41
2023/12/15 03:05:37;;;;;;;50.37;33.40;;;;;;;;;;5013932;28;20456;-39
2023/12/15 03:08:06;;;;;;;57.57;37.57;;;;;;;;;;5013718;28;20491;-39
2023/12/15 03:10:34;;;;;;;56.17;34.60;;;;;;;;;;5014193;28;20921;-40
2023/12/15 03:13:02;;;;;;;64.60;35.93;;;;;;;;;;5014298;28;20520;-39
2023/12/15 03:15:31;;;;;;;56.07;37.63;;;;;;;;;;5013763;28;20473;-38
2023/12/15 03:17:58;;;;;;;58.57;37.20;;;;;;;;;;5013518;28;20488;-39
2023/12/15 03:20:26;;;;;;;68.47;37.43;;;;;;;;;;5014174;28;20436;-38
2023/12/15 03:22:59;;;;;;;66.97;37.60;;;;;;;;;;5014141;28;20448;-38
2023/12/15 03:25:26;;;;;;;64.73;38.30;;;;;;;;;;5013693;28;20428;-40
2023/12/15 03:27:54;;;;;;;68.17;40.07;;;;;;;;;;5013561;28;20992;-39
2023/12/15 03:30:21;;;;;;;71.20;39.50;;;;;;;;;;5013612;28;20506;-39
2023/12/15 03:32:51;;;;;;;51.10;34.37;;;;;;;;;;5013639;28;20948;-39
2023/12/15 03:35:18;;;;;;;57.47;36.60;;;;;;;;;;5013601;28;20444;-39
2023/12/15 03:37:46;;;;;;;59.80;38.07;;;;;;;;;;5013119;28;20461;-38
2023/12/15 03:40:14;;;;;;;67.13;38.90;;;;;;;;;;5013481;28;20481;-40
2023/12/15 03:42:41;;;;;;;56.43;36.80;;;;;;;;;;5013650;28;20433;-39
2023/12/15 03:45:09;;;;;;;66.67;38.87;;;;;;;;;;5013525;28;20528;-39
2023/12/15 03:47:37;;;;;;;64.67;36.47;;;;;;;;;;5013325;28;20507;-39
2023/12/15 03:50:07;;;;;;;67.27;36.80;;;;;;;;;;5013768;28;20433;-39
2023/12/15 03:52:35;;;;;;;71.47;39.10;;;;;;;;;;5013510;28;20434;-39
2023/12/15 03:55:03;;;;;;;65.30;39.53;;;;;;;;;;5013199;28;20528;-40
2023/12/15 03:57:31;;;;;;;67.47;38.93;;;;;;;;;;5012759;28;20468;-40
2023/12/15 03:59:58;;;;;;;73.23;40.03;;;;;;;;;;5013567;28;20836;-39
2023/12/15 04:02:26;;;;;;;73.43;41.43;;;;;;;;;;5012281;28;20889;-39
2023/12/15 04:04:54;;;;;;;78.27;40.27;;;;;;;;;;5013041;28;20933;-40
2023/12/15 04:07:23;;;;;;;80.83;41.50;;;;;;;;;;5012816;28;20484;-40
2023/12/15 04:09:50;;;;;;;69.87;40.60;;;;;;;;;;5013194;28;20434;-39
2023/12/15 04:12:18;;;;;;;72.80;40.70;;;;;;;;;;5013214;28;20433;-44
2023/12/15 04:14:45;;;;;;;70.30;38.37;;;;;;;;;;5013012;28;20437;-39
2023/12/15 04:17:13;;;;;;;75.73;39.13;;;;;;;;;;5012637;28;20888;-38
2023/12/15 04:19:40;;;;;;;81.47;40.37;;;;;;;;;;5012820;28;20496;-39
2023/12/15 04:22:08;;;;;;;75.50;39.97;;;;;;;;;;5012736;28;21089;-40
2023/12/15 04:24:37;;;;;;;73.27;39.57;;;;;;;;;;5012631;28;20433;-40
2023/12/15 04:27:05;;;;;;;70.03;37.77;;;;;;;;;;5012487;28;20476;-39
2023/12/15 04:29:32;;;;;;;68.60;37.90;;;;;;;;;;5012628;28;20430;-38
2023/12/15 04:32:00;;;;;;;79.43;40.43;;;;;;;;;;5012721;28;20440;-39
2023/12/15 04:34:29;;;;;;;62.60;36.93;;;;;;;;;;5012529;28;20445;-38
2023/12/15 04:36:56;;;;;;;70.23;36.63;;;;;;;;;;5011790;28;20965;-39
2023/12/15 04:39:23;;;;;;;70.90;40.23;;;;;;;;;;5012781;28;20583;-40
2023/12/15 04:41:52;;;;;;;74.40;38.50;;;;;;;;;;5012527;28;20480;-39
2023/12/15 04:44:20;;;;;;;75.93;36.97;;;;;;;;;;5012516;28;20440;-40
2023/12/15 04:46:48;;;;;;;88.93;42.50;;;;;;;;;;5011341;28;20544;-40
2023/12/15 04:49:15;;;;;;;82.33;39.97;;;;;;;;;;5012354;28;20429;-38
2023/12/15 04:51:43;;;;;;;84.87;39.17;;;;;;;;;;5012190;28;20456;-38
2023/12/15 04:54:10;;;;;;;113.03;44.00;;;;;;;;;;5012557;28;20520;-39
2023/12/15 04:56:38;;;;;;;99.87;43.33;;;;;;;;;;5011991;28;20523;-39
2023/12/15 04:59:07;;;;;;;83.87;39.20;;;;;;;;;;5011746;28;20519;-39
2023/12/15 05:01:34;;;;;;;94.40;41.37;;;;;;;;;;5012128;28;20861;-40
2023/12/15 05:04:02;;;;;;;109.80;44.17;;;;;;;;;;5011914;28;20469;-39
2023/12/15 05:06:31;;;;;;;101.57;42.63;;;;;;;;;;5012085;28;20492;-39
2023/12/15 05:08:58;;;;;;;121.00;43.80;;;;;;;;;;5011821;28;20457;-39
2023/12/15 05:11:26;;;;;;;104.87;42.10;;;;;;;;;;5011845;28;20440;-39
2023/12/15 05:13:54;;;;;;;129.20;43.93;;;;;;;;;;5011823;28;20441;-39
2023/12/15 05:16:23;;;;;;;121.97;43.73;;;;;;;;;;5011661;28;21084;-40
2023/12/15 05:18:50;;;;;;;116.10;40.70;;;;;;;;;;5011322;28;20465;-42
2023/12/15 05:21:18;;;;;;;107.20;41.40;;;;;;;;;;5011677;28;20495;-40
2023/12/15 05:23:46;;;;;;;173.77;46.93;;;;;;;;;;5012197;28;20802;-44
2023/12/15 05:26:13;;;;;;;231.97;50.83;;;;;;;;;;5011891;28;20457;-42
2023/12/15 05:28:41;;;;;;;117.77;42.10;;;;;;;;;;5011290;28;20461;-39
2023/12/15 05:31:08;;;;;;;153.83;44.83;;;;;;;;;;5011547;28;20906;-40
2023/12/15 05:33:37;;;;;;;147.13;45.43;;;;;;;;;;5011940;28;20443;-39
2023/12/15 05:36:05;;;;;;;172.57;47.20;;;;;;;;;;5011627;28;20928;-39
2023/12/15 05:38:32;;;;;;;153.77;48.00;;;;;;;;;;5011249;28;20489;-41
2023/12/15 05:41:01;;;;;;;163.47;46.80;;;;;;;;;;5011583;28;20477;-40
2023/12/15 05:43:29;;;;;;;164.70;47.43;;;;;;;;;;5011670;28;20459;-39
2023/12/15 05:45:56;;;;;;;188.63;52.17;;;;;;;;;;5011239;28;20493;-38
2023/12/15 05:48:24;;;;;;;221.93;52.87;;;;;;;;;;5011012;28;20456;-39
2023/12/15 05:50:53;;;;;;;177.23;51.97;;;;;;;;;;5011549;28;20939;-38
2023/12/15 05:53:20;;;;;;;177.20;51.37;;;;;;;;;;5011501;28;20433;-38
2023/12/15 05:55:48;;;;;;;205.00;51.07;;;;;;;;;;5011220;28;20472;-39
2023/12/15 05:58:16;;;;;;;233.80;55.77;;;;;;;;;;5010896;28;20511;-40
2023/12/15 06:00:43;;;;;;;205.77;56.67;;;;;;;;;;5011225;28;20509;-38
2023/12/15 06:03:14;;;;;;;145.33;45.87;;;;;;;;;;5011433;28;20444;-40
2023/12/15 06:05:41;;;;;;;154.20;49.73;;;;;;;;;;5011167;28;20455;-40
2023/12/15 06:08:11;;;;;;;198.10;51.00;;;;;;;;;;5011037;28;20810;-41
2023/12/15 06:10:38;;;;;;;192.50;51.60;;;;;;;;;;5011070;28;20516;-42
2023/12/15 06:13:06;;;;;;;220.03;51.57;;;;;;;;;;5011598;28;20452;-44
2023/12/15 06:15:33;;;;;;;233.30;57.30;;;;;;;;;;5011205;28;20440;-39
2023/12/15 06:18:03;;;;;;;206.63;51.90;;;;;;;;;;5010902;28;20985;-41
2023/12/15 06:20:31;;;;;;;191.77;51.60;;;;;;;;;;5011227;28;20473;-38
2023/12/15 06:22:59;;;;;;;220.63;55.40;;;;;;;;;;5011411;28;20440;-39
2023/12/15 06:25:28;;;;;;;276.43;62.20;;;;;;;;;;5012054;28;20944;-39
2023/12/15 06:27:56;;;;;;;184.30;51.13;;;;;;;;;;5014759;28;20547;-40
2023/12/15 06:30:23;;;;;;;233.43;57.63;;;;;;;;;;5015358;28;20433;-39
2023/12/15 06:32:51;;;;;;;191.20;51.97;;;;;;;;;;5014994;28;20437;-39
2023/12/15 06:35:19;;;;;;;150.87;49.10;;;;;;;;;;5014742;28;20436;-40
2023/12/15 06:37:46;;;;;;;234.90;61.83;;;;;;;;;;5006208;28;21042;-40
2023/12/15 06:40:14;;;;;;;172.17;52.00;;;;;;;;;;5015097;28;20481;-39
2023/12/15 06:42:42;;;;;;;201.10;50.03;;;;;;;;;;5014855;28;20472;-38
2023/12/15 06:45:10;;;;;;;267.57;59.43;;;;;;;;;;5014759;28;20536;-39
2023/12/15 06:47:38;;;;;;;178.70;53.47;;;;;;;;;;5014065;28;20488;-39
2023/12/15 06:50:07;;;;;;;239.70;58.23;;;;;;;;;;5014785;28;20432;-39
2023/12/15 06:52:36;;;;;;;178.83;51.30;;;;;;;;;;5014683;28;20841;-39
2023/12/15 06:55:04;;;;;;;158.80;51.27;;;;;;;;;;5014398;28;20444;-39
2023/12/15 06:57:31;;;;;;;158.30;51.40;;;;;;;;;;5014122;28;20476;-39
2023/12/15 07:00:00;;;;;;;194.77;53.13;;;;;;;;;;5014503;28;20880;-39
2023/12/15 07:02:27;;;;;;;169.03;52.80;;;;;;;;;;5014944;28;20947;-39
2023/12/15 07:04:55;;;;;;;205.27;53.80;;;;;;;;;;5014092;28;20932;-39
2023/12/15 07:07:23;;;;;;;147.20;48.07;;;;;;;;;;5014102;28;20484;-39
2023/12/15 07:09:50;;;;;;;188.23;50.70;;;;;;;;;;5006710;28;20782;-39
2023/12/15 07:12:18;;;;;;;168.40;51.43;;;;;;;;;;5014298;28;20812;-39
2023/12/15 07:14:45;;;;;;;173.80;50.57;;;;;;;;;;5013901;28;20433;-40
2023/12/15 07:17:14;;;;;;;137.80;47.87;;;;;;;;;;5013571;28;20824;-41
2023/12/15 07:19:41;;;;;;;157.93;50.33;;;;;;;;;;5013838;28;20437;-39
2023/12/15 07:22:09;;;;;;;147.13;46.63;;;;;;;;;;5014029;28;20476;-39
2023/12/15 07:24:37;;;;;;;146.70;50.93;;;;;;;;;;5014071;28;20441;-39
2023/12/15 07:27:05;;;;;;;158.27;47.40;;;;;;;;;;5013176;28;20453;-39
2023/12/15 07:29:32;;;;;;;156.63;45.33;;;;;;;;;;5013946;28;20475;-42
2023/12/15 07:32:00;;;;;;;153.73;51.40;;;;;;;;;;5013762;28;20437;-39
2023/12/15 07:34:29;;;;;;;171.23;54.43;;;;;;;;;;5013885;28;20441;-41
2023/12/15 07:36:56;;;;;;;186.93;53.40;;;;;;;;;;5013043;28;20892;-41
2023/12/15 07:39:24;;;;;;;166.77;52.23;;;;;;;;;;5013862;28;20483;-39
2023/12/15 07:41:51;;;;;;;158.03;53.33;;;;;;;;;;5013641;28;20834;-40
2023/12/15 07:44:19;;;;;;;133.80;47.13;;;;;;;;;;5013499;28;20433;-39
2023/12/15 07:46:46;;;;;;;158.87;49.23;;;;;;;;;;5012681;28;21072;-44
2023/12/15 07:49:14;;;;;;;190.37;50.30;;;;;;;;;;5013688;28;20437;-39
2023/12/15 07:51:43;;;;;;;148.80;47.80;;;;;;;;;;5013391;28;20444;-40
2023/12/15 07:54:11;;;;;;;173.10;46.30;;;;;;;;;;5013476;28;20794;-40
2023/12/15 07:56:38;;;;;;;177.63;49.13;;;;;;;;;;5013002;28;20504;-40
2023/12/15 07:59:06;;;;;;;331.57;68.70;;;;;;;;;;5012806;28;20481;-39
2023/12/15 08:01:33;;;;;;;208.57;52.27;;;;;;;;;;5013250;28;20477;-38
2023/12/15 08:04:01;;;;;;;339.57;64.17;;;;;;;;;;5013145;28;20987;-39
2023/12/15 08:06:29;;;;;;;255.43;58.40;;;;;;;;;;5012925;28;21177;-39
2023/12/15 08:08:57;;;;;;;153.77;45.97;;;;;;;;;;5012732;28;20567;-39
2023/12/15 08:11:25;;;;;;;296.77;58.43;;;;;;;;;;5012941;28;20475;-39
2023/12/15 08:13:53;;;;;;;269.17;50.60;;;;;;;;;;5005177;28;20461;-41
2023/12/15 08:16:21;;;;;;;213.03;47.03;;;;;;;;;;5012742;28;20496;-39
2023/12/15 08:18:48;;;;;;;202.90;44.70;;;;;;;;;;5012605;28;20481;-38
2023/12/15 08:21:16;;;;;;;208.77;49.83;;;;;;;;;;5013063;28;20623;-38
2023/12/15 08:23:44;;;;;;;265.30;51.03;;;;;;;;;;5012794;28;20566;-39
2023/12/15 08:26:20;;;;;;;185.73;41.60;;;;;;;;;;5012351;28;20464;-39
2023/12/15 08:28:48;;;;;;;219.80;49.47;;;;;;;;;;5012507;28;20468;-39
2023/12/15 08:31:15;;;;;;;330.03;61.57;;;;;;;;;;5012761;28;20437;-40
2023/12/15 08:33:43;;;;;;;134.70;39.10;;;;;;;;;;5012647;28;20437;-39
2023/12/15 08:36:11;;;;;;;193.63;45.80;;;;;;;;;;5012411;28;20479;-39
2023/12/15 08:38:38;;;;;;;158.53;38.13;;;;;;;;;;5012283;28;20833;-40
2023/12/15 08:41:06;;;;;;;253.17;50.13;;;;;;;;;;5012376;28;20996;-39
2023/12/15 08:43:35;;;;;;;132.50;39.13;;;;;;;;;;5012498;28;20437;-39
2023/12/15 08:46:03;;;;;;;68.57;30.80;;;;;;;;;;5011838;28;20476;-39
2023/12/15 08:48:31;;;;;;;174.13;42.10;;;;;;;;;;5011381;28;20547;-40
2023/12/15 08:50:58;;;;;;;106.73;33.43;;;;;;;;;;5012343;28;20441;-39
2023/12/15 08:53:26;;;;;;;72.87;30.90;;;;;;;;;;5012248;28;20528;-41
2023/12/15 08:55:53;;;;;;;91.10;33.70;;;;;;;;;;5012023;28;20468;-39
2023/12/15 08:58:23;;;;;;;80.17;30.70;;;;;;;;;;5011935;28;20461;-38
2023/12/15 09:00:52;;;;;;;66.00;28.70;;;;;;;;;;5012077;28;20437;-38
2023/12/15 09:03:19;;;;;;;57.77;28.03;;;;;;;;;;5012176;28;20433;-39
2023/12/15 09:05:47;;;;;;;47.27;24.30;;;;;;;;;;5011684;28;20999;-39
2023/12/15 09:08:34;;;;;;;50.83;24.47;;;;;;;;;;5011747;28;20453;-39
2023/12/15 09:11:02;;;;;;;45.10;25.30;;;;;;;;;;5012011;28;20448;-39
2023/12/15 09:13:30;;;;;;;41.77;23.20;;;;;;;;;;5012226;28;20547;-39
2023/12/15 09:15:59;;;;;;;45.07;24.90;;;;;;;;;;5011679;28;20453;-39
2023/12/15 09:18:26;;;;;;;39.80;20.90;;;;;;;;;;5011534;28;20461;-39
2023/12/15 09:20:54;;;;;;;43.73;20.90;;;;;;;;;;5011868;28;20429;-40
2023/12/15 09:23:21;;;;;;;46.63;22.70;;;;;;;;;;5012059;28;20893;-38
2023/12/15 09:25:49;;;;;;;36.10;20.90;;;;;;;;;;5011572;28;20457;-39
2023/12/15 09:28:17;;;;;;;37.30;21.47;;;;;;;;;;5011335;28;20523;-39
2023/12/15 09:30:44;;;;;;;33.07;19.83;;;;;;;;;;5011453;28;20465;-39
2023/12/15 09:33:13;;;;;;;32.50;18.50;;;;;;;;;;5012053;28;20441;-39
2023/12/15 09:35:41;;;;;;;28.57;16.67;;;;;;;;;;5011243;28;20440;-39
2023/12/15 09:38:09;;;;;;;29.43;14.97;;;;;;;;;;5011471;28;20465;-40
2023/12/15 09:40:36;;;;;;;32.07;15.73;;;;;;;;;;5011596;28;20470;-39
2023/12/15 09:43:04;;;;;;;32.33;16.00;;;;;;;;;;5011668;28;21022;-39
2023/12/15 09:45:32;;;;;;;33.43;14.53;;;;;;;;;;5011521;28;20450;-39
2023/12/15 09:48:03;;;;;;;41.60;17.50;;;;;;;;;;5011245;28;20464;-40
2023/12/15 09:50:34;;;;;;;30.73;15.23;;;;;;;;;;5011700;28;20498;-39
2023/12/15 09:53:03;;;;;;;30.10;16.60;;;;;;;;;;5011501;28;20429;-39
2023/12/15 09:55:30;;;;;;;25.63;15.10;;;;;;;;;;5011350;28;20936;-39
2023/12/15 09:57:59;;;;;;;36.97;17.47;;;;;;;;;;5010892;28;20445;-38
2023/12/15 10:00:26;;;;;;;30.63;17.50;;;;;;;;;;5013196;28;20445;-39
2023/12/15 10:02:54;;;;;;;34.17;16.27;;;;;;;;;;5015557;28;20538;-39
2023/12/15 10:05:22;;;;;;;30.83;15.13;;;;;;;;;;5015365;28;20437;-39
2023/12/15 10:07:51;;;;;;;38.77;15.37;;;;;;;;;;5014932;28;20515;-39
2023/12/15 10:10:19;;;;;;;23.43;14.27;;;;;;;;;;5015381;28;20880;-39
2023/12/15 10:12:46;;;;;;;29.43;15.40;;;;;;;;;;5015108;28;20476;-46
2023/12/15 10:15:14;;;;;;;29.47;15.13;;;;;;;;;;5014955;28;20527;-41
2023/12/15 10:17:40;;;;;;;25.93;15.10;;;;;;;;;;5014448;28;20472;-40
2023/12/15 10:20:09;;;;;;;28.43;15.10;;;;;;;;;;5015171;28;20495;-39
2023/12/15 10:22:38;;;;;;;24.70;15.90;;;;;;;;;;5014965;28;20469;-39
2023/12/15 10:25:21;;;;;;;25.67;14.40;;;;;;;;;;5014999;28;20436;-39
2023/12/15 10:27:48;;;;;;;33.30;16.10;;;;;;;;;;5014620;28;20555;-39
2023/12/15 10:30:16;;;;;;;24.13;13.53;;;;;;;;;;5015232;28;20441;-39
2023/12/15 10:32:44;;;;;;;18.70;13.73;;;;;;;;;;5014769;28;20436;-39
2023/12/15 10:35:12;;;;;;;32.80;14.20;;;;;;;;;;5014641;28;20451;-39
2023/12/15 10:37:41;;;;;;;31.17;14.80;;;;;;;;;;5014363;28;20488;-39
2023/12/15 10:40:09;;;;;;;26.47;14.07;;;;;;;;;;5014839;28;20945;-39
2023/12/15 10:42:38;;;;;;;24.63;14.50;;;;;;;;;;5014814;28;20475;-41
2023/12/15 10:45:07;;;;;;;29.73;14.53;;;;;;;;;;5014597;28;20429;-42
2023/12/15 10:47:34;;;;;;;26.83;14.50;;;;;;;;;;5014222;28;20544;-39
2023/12/15 10:50:03;;;;;;;30.77;15.67;;;;;;;;;;5014608;28;20955;-40
2023/12/15 10:52:33;;;;;;;21.00;13.87;;;;;;;;;;5014770;28;20822;-39
2023/12/15 10:55:03;;;;;;;24.43;13.10;;;;;;;;;;5014457;28;20448;-39
2023/12/15 10:57:31;;;;;;;20.43;12.20;;;;;;;;;;5013992;28;20551;-39
2023/12/15 11:00:02;;;;;;;29.27;13.10;;;;;;;;;;5014371;28;20518;-39
2023/12/15 11:02:31;;;;;;;29.37;12.97;;;;;;;;;;5014370;28;20888;-39
2023/12/15 11:04:59;;;;;;;20.97;10.30;;;;;;;;;;5014185;28;20480;-42
2023/12/15 11:07:28;;;;;;;21.87;11.10;;;;;;;;;;5013981;28;20464;-42
2023/12/15 11:09:56;;;;;;;22.70;12.43;;;;;;;;;;5014394;28;20520;-43
2023/12/15 11:12:32;;;;;;;27.80;11.77;;;;;;;;;;5013771;28;21003;-42
2023/12/15 11:15:02;;;;;;;23.60;11.53;;;;;;;;;;5013893;28;20436;-44
2023/12/15 11:17:30;;;;;;;31.73;13.40;;;;;;;;;;5013860;28;20471;-40
2023/12/15 11:19:59;;;;;;;25.77;13.23;;;;;;;;;;5014133;28;20852;-41
2023/12/15 11:22:28;;;;;;;33.67;13.60;;;;;;;;;;5013934;28;20548;-40
2023/12/15 11:24:56;;;;;;;23.23;11.80;;;;;;;;;;5014136;28;20925;-40
2023/12/15 11:27:24;;;;;;;23.97;11.67;;;;;;;;;;5013410;28;20464;-40
2023/12/15 11:29:52;;;;;;;30.87;12.50;;;;;;;;;;5014140;28;20437;-41
2023/12/15 11:32:29;;;;;;;35.57;13.03;;;;;;;;;;5013917;28;20447;-39
2023/12/15 11:34:58;;;;;;;23.67;13.57;;;;;;;;;;5013546;28;21045;-39
2023/12/15 11:37:26;;;;;;;22.13;11.10;;;;;;;;;;5013375;28;20493;-43
2023/12/15 11:39:55;;;;;;;50.10;13.30;;;;;;;;;;5013442;28;20473;-39
2023/12/15 11:42:22;;;;;;;29.07;12.97;;;;;;;;;;5013698;28;20913;-40
2023/12/15 11:44:50;;;;;;;22.43;12.87;;;;;;;;;;5013694;28;20469;-39
2023/12/15 11:47:17;;;;;;;19.10;11.60;;;;;;;;;;5013277;28;20527;-39
2023/12/15 11:49:46;;;;;;;28.43;12.50;;;;;;;;;;5013574;28;20441;-39
2023/12/15 11:52:15;;;;;;;24.53;12.70;;;;;;;;;;5013544;28;20437;-39
2023/12/15 11:54:42;;;;;;;34.80;12.97;;;;;;;;;;5013381;28;20492;-41
2023/12/15 11:57:10;;;;;;;23.93;11.77;;;;;;;;;;5012967;28;20531;-39
2023/12/15 11:59:44;;;;;;;32.40;12.33;;;;;;;;;;5013468;28;20437;-38
2023/12/15 12:02:14;;;;;;;36.93;13.00;;;;;;;;;;5006408;28;20798;-39
2023/12/15 12:04:43;;;;;;;24.13;11.83;;;;;;;;;;5013101;28;20469;-39
2023/12/15 12:07:12;;;;;;;16.07;10.77;;;;;;;;;;5012933;28;20461;-40
2023/12/15 12:09:40;;;;;;;25.00;12.20;;;;;;;;;;5013325;28;20476;-39
2023/12/15 12:12:08;;;;;;;25.13;12.80;;;;;;;;;;5005467;28;20836;-40
2023/12/15 12:14:41;;;;;;;23.37;12.70;;;;;;;;;;5013153;28;20433;-44
2023/12/15 12:17:09;;;;;;;28.63;12.33;;;;;;;;;;5004807;28;21017;-42
2023/12/15 12:19:39;;;;;;;31.63;13.90;;;;;;;;;;5012797;28;20453;-40
2023/12/15 12:22:09;;;;;;;22.87;11.63;;;;;;;;;;5012629;28;20433;-39
2023/12/15 12:24:38;;;;;;;25.27;12.50;;;;;;;;;;5012356;28;20550;-39
2023/12/15 12:27:07;;;;;;;30.33;15.27;;;;;;;;;;5012319;28;20477;-39
2023/12/15 12:29:35;;;;;;;28.07;12.97;;;;;;;;;;5012758;28;20586;-40
2023/12/15 12:32:03;;;;;;;23.97;12.37;;;;;;;;;;5012463;28;20436;-40
2023/12/15 12:34:30;;;;;;;33.47;14.13;;;;;;;;;;5012705;28;20801;-39
2023/12/15 12:36:58;;;;;;;23.10;11.40;;;;;;;;;;5012032;28;21139;-39
2023/12/15 12:39:27;;;;;;;32.13;13.90;;;;;;;;;;5012731;28;20437;-39
2023/12/15 12:41:56;;;;;;;24.93;12.20;;;;;;;;;;5012344;28;20503;-39
2023/12/15 12:44:23;;;;;;;34.03;13.40;;;;;;;;;;5012271;28;20473;-39
2023/12/15 12:46:51;;;;;;;29.00;13.63;;;;;;;;;;5011630;28;21001;-41
2023/12/15 12:49:19;;;;;;;22.97;11.70;;;;;;;;;;5012598;28;20867;-39
2023/12/15 12:51:46;;;;;;;30.33;13.87;;;;;;;;;;5012412;28;20491;-40
2023/12/15 12:54:14;;;;;;;21.60;11.87;;;;;;;;;;5012298;28;20441;-39
2023/12/15 12:56:41;;;;;;;21.70;11.47;;;;;;;;;;5012032;28;20461;-39
2023/12/15 12:59:27;;;;;;;29.63;12.80;;;;;;;;;;5012304;28;20452;-42
2023/12/15 13:01:55;;;;;;;23.90;12.83;;;;;;;;;;5012288;28;20455;-39
2023/12/15 13:04:39;;;;;;;21.20;11.37;;;;;;;;;;5012444;28;20500;-38
2023/12/15 13:07:06;;;;;;;26.63;12.87;;;;;;;;;;5011393;28;20457;-39
2023/12/15 13:09:34;;;;;;;29.93;12.40;;;;;;;;;;5012176;28;20441;-39
2023/12/15 13:12:02;;;;;;;22.83;12.63;;;;;;;;;;5012146;28;20491;-39
2023/12/15 13:14:31;;;;;;;33.47;14.50;;;;;;;;;;5012194;28;20868;-39
2023/12/15 13:16:58;;;;;;;25.23;13.10;;;;;;;;;;5011187;28;20857;-40
2023/12/15 13:19:29;;;;;;;26.93;12.87;;;;;;;;;;5011929;28;20888;-39
2023/12/15 13:21:56;;;;;;;23.43;13.07;;;;;;;;;;5011662;28;20433;-39
2023/12/15 13:24:25;;;;;;;30.23;13.60;;;;;;;;;;5012302;28;20504;-39
2023/12/15 13:26:52;;;;;;;21.67;12.07;;;;;;;;;;5011296;28;20457;-40
2023/12/15 13:29:20;;;;;;;24.60;13.47;;;;;;;;;;5011859;28;20437;-42
2023/12/15 13:32:00;;;;;;;18.00;11.70;;;;;;;;;;5011846;28;20437;-39
2023/12/15 13:34:28;;;;;;;27.13;13.23;;;;;;;;;;5011661;28;20433;-39
2023/12/15 13:36:56;;;;;;;24.53;11.90;;;;;;;;;;5011203;28;20492;-39
2023/12/15 13:39:23;;;;;;;18.40;11.90;;;;;;;;;;5011762;28;20438;-39
2023/12/15 13:41:51;;;;;;;27.60;13.03;;;;;;;;;;5011424;28;20441;-39
2023/12/15 13:44:20;;;;;;;18.63;11.03;;;;;;;;;;5011669;28;20465;-39
2023/12/15 13:46:52;;;;;;;18.27;11.07;;;;;;;;;;5010870;28;20833;-40
2023/12/15 13:49:20;;;;;;;21.70;11.00;;;;;;;;;;5011953;28;20445;-40
2023/12/15 13:51:48;;;;;;;19.07;11.87;;;;;;;;;;5011634;28;20429;-40
2023/12/15 13:54:15;;;;;;;29.03;13.30;;;;;;;;;;5011441;28;20471;-40
2023/12/15 13:56:43;;;;;;;18.63;11.20;;;;;;;;;;5010812;28;20872;-42
2023/12/15 13:59:11;;;;;;;23.27;10.73;;;;;;;;;;5011458;28;20817;-40
2023/12/15 14:01:39;;;;;;;21.43;11.07;;;;;;;;;;5011156;28;20437;-39
2023/12/15 14:04:08;;;;;;;24.80;11.80;;;;;;;;;;5011525;28;20484;-40
2023/12/15 14:06:37;;;;;;;34.37;13.13;;;;;;;;;;5011292;28;20457;-43
2023/12/15 14:09:06;;;;;;;21.90;10.23;;;;;;;;;;5010786;28;20511;-39
2023/12/15 14:11:34;;;;;;;24.40;11.40;;;;;;;;;;5011528;28;20437;-39
2023/12/15 14:14:02;;;;;;;24.13;11.67;;;;;;;;;;5011361;28;20437;-39
2023/12/15 14:16:29;;;;;;;26.03;14.00;;;;;;;;;;5011299;28;20514;-40
2023/12/15 14:19:10;;;;;;;24.13;12.43;;;;;;;;;;5010927;28;20480;-39